createdAt,value
2023-03-29T00:00:10.944Z,488.00
2023-03-29T00:00:24.937Z,489.00
2023-03-29T00:00:38.923Z,489.00
2023-03-29T00:01:06.886Z,489.00
2023-03-29T00:01:36.125Z,488.00
2023-03-29T00:01:36.485Z,488.00
2023-03-29T00:01:48.062Z,488.00
2023-03-29T00:02:16.037Z,489.00
2023-03-29T00:02:30.336Z,488.00
2023-03-29T00:02:44.661Z,488.00
2023-03-29T00:02:58.925Z,489.00
2023-03-29T00:03:13.072Z,489.00
2023-03-29T00:03:27.186Z,488.00
2023-03-29T00:03:41.352Z,489.00
2023-03-29T00:03:55.454Z,489.00
2023-03-29T00:04:09.690Z,489.00
2023-03-29T00:04:37.820Z,490.00
2023-03-29T00:04:51.882Z,490.00
2023-03-29T00:05:05.875Z,490.00
2023-03-29T00:05:19.864Z,491.00
2023-03-29T00:05:47.853Z,490.00
2023-03-29T00:06:01.834Z,490.00
2023-03-29T00:06:15.829Z,490.00
2023-03-29T00:06:29.823Z,491.00
2023-03-29T00:06:57.826Z,491.00
2023-03-29T00:07:11.838Z,490.00
2023-03-29T00:07:25.821Z,489.00
2023-03-29T00:07:39.811Z,490.00
2023-03-29T00:08:07.760Z,489.00
2023-03-29T00:08:21.735Z,489.00
2023-03-29T00:08:35.759Z,489.00
2023-03-29T00:08:49.745Z,489.00
2023-03-29T00:09:17.736Z,490.00
2023-03-29T00:09:31.726Z,491.00
2023-03-29T00:09:45.712Z,490.00
2023-03-29T00:09:59.705Z,490.00
2023-03-29T00:10:27.681Z,491.00
2023-03-29T00:10:41.661Z,490.00
2023-03-29T00:10:55.690Z,491.00
2023-03-29T00:11:09.688Z,491.00
2023-03-29T00:11:37.656Z,491.00
2023-03-29T00:11:51.637Z,492.00
2023-03-29T00:12:05.620Z,493.00
2023-03-29T00:12:19.613Z,492.00
2023-03-29T00:12:47.592Z,494.00
2023-03-29T00:13:01.580Z,493.00
2023-03-29T00:13:15.556Z,494.00
2023-03-29T00:13:29.554Z,493.00
2023-03-29T00:13:57.521Z,492.00
2023-03-29T00:14:11.509Z,492.00
2023-03-29T00:14:25.499Z,492.00
2023-03-29T00:14:39.495Z,492.00
2023-03-29T00:15:07.481Z,493.00
2023-03-29T00:15:21.465Z,493.00
2023-03-29T00:15:35.447Z,492.00
2023-03-29T00:15:49.457Z,492.00
2023-03-29T00:16:17.456Z,491.00
2023-03-29T00:16:31.500Z,491.00
2023-03-29T00:16:45.575Z,491.00
2023-03-29T00:16:59.617Z,490.00
2023-03-29T00:17:27.678Z,491.00
2023-03-29T00:17:41.721Z,491.00
2023-03-29T00:17:55.764Z,490.00
2023-03-29T00:18:09.804Z,491.00
2023-03-29T00:18:37.789Z,492.00
2023-03-29T00:18:51.780Z,491.00
2023-03-29T00:19:05.757Z,491.00
2023-03-29T00:19:19.786Z,492.00
2023-03-29T00:19:47.792Z,491.00
2023-03-29T00:20:01.780Z,491.00
2023-03-29T00:20:15.767Z,492.00
2023-03-29T00:20:29.800Z,492.00
2023-03-29T00:20:57.880Z,491.00
2023-03-29T00:21:11.896Z,491.00
2023-03-29T00:21:25.874Z,491.00
2023-03-29T00:21:39.870Z,491.00
2023-03-29T00:22:07.863Z,489.00
2023-03-29T00:22:21.856Z,489.00
2023-03-29T00:22:35.857Z,489.00
2023-03-29T00:22:49.842Z,488.00
2023-03-29T00:23:17.801Z,488.00
2023-03-29T00:23:31.809Z,488.00
2023-03-29T00:23:45.805Z,488.00
2023-03-29T00:23:59.800Z,488.00
2023-03-29T00:24:27.739Z,488.00
2023-03-29T00:24:41.742Z,489.00
2023-03-29T00:24:55.774Z,489.00
2023-03-29T00:25:09.758Z,489.00
2023-03-29T00:25:37.724Z,489.00
2023-03-29T00:25:51.724Z,489.00
2023-03-29T00:26:07.797Z,489.00
2023-03-29T00:26:19.627Z,488.00
2023-03-29T00:26:47.597Z,488.00
2023-03-29T00:27:01.585Z,489.00
2023-03-29T00:27:15.585Z,488.00
2023-03-29T00:27:29.579Z,488.00
2023-03-29T00:27:57.539Z,487.00
2023-03-29T00:28:11.531Z,486.00
2023-03-29T00:28:25.527Z,486.00
2023-03-29T00:28:39.530Z,486.00
2023-03-29T00:29:07.516Z,486.00
2023-03-29T00:29:21.510Z,485.00
2023-03-29T00:29:35.524Z,485.00
2023-03-29T00:29:49.519Z,485.00
2023-03-29T00:30:17.514Z,485.00
2023-03-29T00:30:31.516Z,485.00
2023-03-29T00:30:45.503Z,485.00
2023-03-29T00:30:59.853Z,485.00
2023-03-29T00:31:28.004Z,486.00
2023-03-29T00:31:42.091Z,486.00
2023-03-29T00:31:56.220Z,486.00
2023-03-29T00:32:10.271Z,485.00
2023-03-29T00:32:38.333Z,485.00
2023-03-29T00:32:52.412Z,485.00
2023-03-29T00:33:06.461Z,484.00
2023-03-29T00:33:20.484Z,485.00
2023-03-29T00:33:34.506Z,484.00
2023-03-29T00:33:48.497Z,484.00
2023-03-29T00:34:02.494Z,484.00
2023-03-29T00:34:16.485Z,484.00
2023-03-29T00:34:30.460Z,485.00
2023-03-29T00:34:58.437Z,486.00
2023-03-29T00:35:12.429Z,485.00
2023-03-29T00:35:26.472Z,487.00
2023-03-29T00:35:40.488Z,486.00
2023-03-29T00:36:08.489Z,487.00
2023-03-29T00:36:22.503Z,487.00
2023-03-29T00:36:36.512Z,486.00
2023-03-29T00:36:50.529Z,486.00
2023-03-29T00:37:18.507Z,486.00
2023-03-29T00:37:32.496Z,485.00
2023-03-29T00:37:46.501Z,486.00
2023-03-29T00:38:00.529Z,486.00
2023-03-29T00:38:28.479Z,485.00
2023-03-29T00:38:42.465Z,486.00
2023-03-29T00:38:56.490Z,485.00
2023-03-29T00:39:10.488Z,484.00
2023-03-29T00:39:38.433Z,484.00
2023-03-29T00:39:52.420Z,484.00
2023-03-29T00:40:06.411Z,484.00
2023-03-29T00:40:20.436Z,483.00
2023-03-29T00:40:48.423Z,482.00
2023-03-29T00:41:02.666Z,482.00
2023-03-29T00:41:16.838Z,483.00
2023-03-29T00:41:30.829Z,483.00
2023-03-29T00:41:58.781Z,483.00
2023-03-29T00:42:12.757Z,483.00
2023-03-29T00:42:26.750Z,483.00
2023-03-29T00:42:40.735Z,483.00
2023-03-29T00:43:08.719Z,482.00
2023-03-29T00:43:22.745Z,482.00
2023-03-29T00:43:36.743Z,482.00
2023-03-29T00:43:50.731Z,483.00
2023-03-29T00:44:18.689Z,485.00
2023-03-29T00:44:32.683Z,484.00
2023-03-29T00:44:46.688Z,484.00
2023-03-29T00:45:00.684Z,483.00
2023-03-29T00:45:28.688Z,482.00
2023-03-29T00:45:42.704Z,483.00
2023-03-29T00:45:56.694Z,482.00
2023-03-29T00:46:10.746Z,482.00
2023-03-29T00:46:24.888Z,482.00
2023-03-29T00:46:38.965Z,482.00
2023-03-29T00:46:53.113Z,482.00
2023-03-29T00:47:07.139Z,482.00
2023-03-29T00:47:21.120Z,482.00
2023-03-29T00:47:49.151Z,481.00
2023-03-29T00:48:03.263Z,481.00
2023-03-29T00:48:17.340Z,480.00
2023-03-29T00:48:31.359Z,480.00
2023-03-29T00:48:59.352Z,479.00
2023-03-29T00:49:13.343Z,477.00
2023-03-29T00:49:27.339Z,477.00
2023-03-29T00:49:41.323Z,478.00
2023-03-29T00:50:09.310Z,479.00
2023-03-29T00:50:23.314Z,479.00
2023-03-29T00:50:37.316Z,479.00
2023-03-29T00:50:51.361Z,478.00
2023-03-29T00:51:19.313Z,478.00
2023-03-29T00:51:33.305Z,478.00
2023-03-29T00:51:47.312Z,478.00
2023-03-29T00:52:01.300Z,478.00
2023-03-29T00:52:29.275Z,477.00
2023-03-29T00:52:43.263Z,476.00
2023-03-29T00:52:57.246Z,476.00
2023-03-29T00:53:11.242Z,477.00
2023-03-29T00:53:39.207Z,477.00
2023-03-29T00:53:53.187Z,477.00
2023-03-29T00:54:07.180Z,477.00
2023-03-29T00:54:21.161Z,477.00
2023-03-29T00:54:49.116Z,477.00
2023-03-29T00:55:03.119Z,477.00
2023-03-29T00:55:17.107Z,477.00
2023-03-29T00:55:31.124Z,478.00
2023-03-29T00:55:59.144Z,478.00
2023-03-29T00:56:13.142Z,478.00
2023-03-29T00:56:27.134Z,479.00
2023-03-29T00:56:41.131Z,479.00
2023-03-29T00:57:09.149Z,480.00
2023-03-29T00:57:23.766Z,479.00
2023-03-29T00:57:35.782Z,480.00
2023-03-29T00:57:49.768Z,480.00
2023-03-29T00:58:17.754Z,480.00
2023-03-29T00:58:31.743Z,480.00
2023-03-29T00:58:45.733Z,480.00
2023-03-29T00:58:59.716Z,481.00
2023-03-29T00:59:27.674Z,482.00
2023-03-29T00:59:41.664Z,482.00
2023-03-29T00:59:55.650Z,482.00
2023-03-29T01:00:09.643Z,482.00
2023-03-29T01:00:37.632Z,480.00
2023-03-29T01:00:51.618Z,481.00
2023-03-29T01:01:05.626Z,480.00
2023-03-29T01:01:19.763Z,480.00
2023-03-29T01:01:47.837Z,480.00
2023-03-29T01:02:01.884Z,480.00
2023-03-29T01:02:15.985Z,480.00
2023-03-29T01:02:30.116Z,480.00
2023-03-29T01:02:58.262Z,479.00
2023-03-29T01:03:12.391Z,478.00
2023-03-29T01:03:26.508Z,478.00
2023-03-29T01:03:40.597Z,477.00
2023-03-29T01:03:54.852Z,477.00
2023-03-29T01:04:08.956Z,477.00
2023-03-29T01:04:22.960Z,477.00
2023-03-29T01:04:36.940Z,477.00
2023-03-29T01:04:50.934Z,477.00
2023-03-29T01:05:18.893Z,477.00
2023-03-29T01:05:32.869Z,477.00
2023-03-29T01:05:46.862Z,477.00
2023-03-29T01:06:00.836Z,477.00
2023-03-29T01:06:28.847Z,478.00
2023-03-29T01:06:42.914Z,479.00
2023-03-29T01:06:57.038Z,479.00
2023-03-29T01:07:11.184Z,479.00
2023-03-29T01:07:39.267Z,479.00
2023-03-29T01:07:53.249Z,478.00
2023-03-29T01:08:07.250Z,478.00
2023-03-29T01:08:21.242Z,477.00
2023-03-29T01:08:49.214Z,477.00
2023-03-29T01:09:03.238Z,476.00
2023-03-29T01:09:17.267Z,476.00
2023-03-29T01:09:31.249Z,477.00
2023-03-29T01:09:59.200Z,478.00
2023-03-29T01:10:13.190Z,479.00
2023-03-29T01:10:27.176Z,480.00
2023-03-29T01:10:41.167Z,479.00
2023-03-29T01:11:09.131Z,479.00
2023-03-29T01:11:23.104Z,479.00
2023-03-29T01:11:37.097Z,479.00
2023-03-29T01:11:51.085Z,479.00
2023-03-29T01:12:19.057Z,479.00
2023-03-29T01:12:33.069Z,479.00
2023-03-29T01:12:47.078Z,478.00
2023-03-29T01:13:01.072Z,479.00
2023-03-29T01:13:29.059Z,480.00
2023-03-29T01:13:43.045Z,481.00
2023-03-29T01:13:57.038Z,481.00
2023-03-29T01:14:11.036Z,482.00
2023-03-29T01:14:38.989Z,481.00
2023-03-29T01:14:52.996Z,480.00
2023-03-29T01:15:06.985Z,480.00
2023-03-29T01:15:20.981Z,479.00
2023-03-29T01:15:48.948Z,479.00
2023-03-29T01:16:03.025Z,480.00
2023-03-29T01:16:17.119Z,480.00
2023-03-29T01:16:31.152Z,479.00
2023-03-29T01:16:59.142Z,479.00
2023-03-29T01:17:13.185Z,480.00
2023-03-29T01:17:27.201Z,480.00
2023-03-29T01:17:41.255Z,480.00
2023-03-29T01:18:09.265Z,480.00
2023-03-29T01:18:23.270Z,480.00
2023-03-29T01:18:37.256Z,480.00
2023-03-29T01:18:51.235Z,480.00
2023-03-29T01:19:19.231Z,480.00
2023-03-29T01:19:33.233Z,481.00
2023-03-29T01:19:47.213Z,482.00
2023-03-29T01:20:01.222Z,482.00
2023-03-29T01:20:29.178Z,482.00
2023-03-29T01:20:43.160Z,482.00
2023-03-29T01:20:57.153Z,482.00
2023-03-29T01:21:11.322Z,482.00
2023-03-29T01:21:39.277Z,483.00
2023-03-29T01:21:53.272Z,483.00
2023-03-29T01:22:07.281Z,483.00
2023-03-29T01:22:21.326Z,483.00
2023-03-29T01:22:49.312Z,483.00
2023-03-29T01:23:03.291Z,483.00
2023-03-29T01:23:17.297Z,483.00
2023-03-29T01:23:31.277Z,482.00
2023-03-29T01:23:59.274Z,482.00
2023-03-29T01:24:13.285Z,482.00
2023-03-29T01:24:27.271Z,481.00
2023-03-29T01:24:41.250Z,481.00
2023-03-29T01:25:09.199Z,481.00
2023-03-29T01:25:23.224Z,481.00
2023-03-29T01:25:37.221Z,480.00
2023-03-29T01:25:51.241Z,480.00
2023-03-29T01:26:19.188Z,480.00
2023-03-29T01:26:33.199Z,480.00
2023-03-29T01:26:47.190Z,481.00
2023-03-29T01:27:01.186Z,480.00
2023-03-29T01:27:29.155Z,479.00
2023-03-29T01:27:43.244Z,479.00
2023-03-29T01:27:57.244Z,479.00
2023-03-29T01:28:11.232Z,479.00
2023-03-29T01:28:39.205Z,480.00
2023-03-29T01:28:53.200Z,479.00
2023-03-29T01:29:07.200Z,480.00
2023-03-29T01:29:21.191Z,480.00
2023-03-29T01:29:49.161Z,479.00
2023-03-29T01:30:03.153Z,480.00
2023-03-29T01:30:17.168Z,479.00
2023-03-29T01:30:31.150Z,479.00
2023-03-29T01:30:59.241Z,478.00
2023-03-29T01:31:13.491Z,478.00
2023-03-29T01:31:27.556Z,478.00
2023-03-29T01:31:41.612Z,478.00
2023-03-29T01:32:09.630Z,477.00
2023-03-29T01:32:23.663Z,477.00
2023-03-29T01:32:37.767Z,478.00
2023-03-29T01:32:51.842Z,478.00
2023-03-29T01:33:19.842Z,478.00
2023-03-29T01:33:33.833Z,478.00
2023-03-29T01:33:47.826Z,479.00
2023-03-29T01:34:01.810Z,479.00
2023-03-29T01:34:29.790Z,480.00
2023-03-29T01:34:43.782Z,480.00
2023-03-29T01:34:57.762Z,480.00
2023-03-29T01:35:11.766Z,479.00
2023-03-29T01:35:39.748Z,481.00
2023-03-29T01:35:53.817Z,481.00
2023-03-29T01:36:08.017Z,481.00
2023-03-29T01:36:22.104Z,481.00
2023-03-29T01:36:50.055Z,481.00
2023-03-29T01:37:04.047Z,481.00
2023-03-29T01:37:18.035Z,480.00
2023-03-29T01:37:32.062Z,479.00
2023-03-29T01:38:00.110Z,478.00
2023-03-29T01:38:14.108Z,478.00
2023-03-29T01:38:28.107Z,479.00
2023-03-29T01:38:42.096Z,477.00
2023-03-29T01:39:10.041Z,478.00
2023-03-29T01:39:24.038Z,478.00
2023-03-29T01:39:38.013Z,478.00
2023-03-29T01:39:51.994Z,478.00
2023-03-29T01:40:19.942Z,476.00
2023-03-29T01:40:33.939Z,475.00
2023-03-29T01:40:47.933Z,475.00
2023-03-29T01:41:02.053Z,475.00
2023-03-29T01:41:30.100Z,474.00
2023-03-29T01:41:44.123Z,475.00
2023-03-29T01:41:58.112Z,474.00
2023-03-29T01:42:12.098Z,473.00
2023-03-29T01:42:40.084Z,474.00
2023-03-29T01:42:54.074Z,474.00
2023-03-29T01:43:08.096Z,475.00
2023-03-29T01:43:22.093Z,475.00
2023-03-29T01:43:50.161Z,473.00
2023-03-29T01:44:04.146Z,474.00
2023-03-29T01:44:18.132Z,474.00
2023-03-29T01:44:32.130Z,474.00
2023-03-29T01:45:00.117Z,475.00
2023-03-29T01:45:14.103Z,474.00
2023-03-29T01:45:28.101Z,475.00
2023-03-29T01:45:42.109Z,475.00
2023-03-29T01:46:10.161Z,474.00
2023-03-29T01:46:24.270Z,474.00
2023-03-29T01:46:38.330Z,474.00
2023-03-29T01:46:52.391Z,475.00
2023-03-29T01:47:20.417Z,475.00
2023-03-29T01:47:34.487Z,476.00
2023-03-29T01:47:48.537Z,476.00
2023-03-29T01:48:02.621Z,476.00
2023-03-29T01:48:30.599Z,476.00
2023-03-29T01:48:44.592Z,476.00
2023-03-29T01:48:58.620Z,476.00
2023-03-29T01:49:12.614Z,475.00
2023-03-29T01:49:40.562Z,476.00
2023-03-29T01:49:54.536Z,476.00
2023-03-29T01:50:08.540Z,475.00
2023-03-29T01:50:22.543Z,476.00
2023-03-29T01:50:50.513Z,478.00
2023-03-29T01:51:04.756Z,478.00
2023-03-29T01:51:18.869Z,478.00
2023-03-29T01:51:32.845Z,478.00
2023-03-29T01:51:46.862Z,478.00
2023-03-29T01:52:00.862Z,477.00
2023-03-29T01:52:14.931Z,477.00
2023-03-29T01:52:28.935Z,476.00
2023-03-29T01:52:42.921Z,476.00
2023-03-29T01:53:10.908Z,476.00
2023-03-29T01:53:24.950Z,477.00
2023-03-29T01:53:38.955Z,477.00
2023-03-29T01:53:52.943Z,477.00
2023-03-29T01:54:20.909Z,477.00
2023-03-29T01:54:34.920Z,477.00
2023-03-29T01:54:48.913Z,477.00
2023-03-29T01:55:02.933Z,477.00
2023-03-29T01:55:30.919Z,477.00
2023-03-29T01:55:44.918Z,479.00
2023-03-29T01:55:58.916Z,479.00
2023-03-29T01:56:12.899Z,481.00
2023-03-29T01:56:40.885Z,481.00
2023-03-29T01:56:54.977Z,480.00
2023-03-29T01:57:09.053Z,480.00
2023-03-29T01:57:23.143Z,478.00
2023-03-29T01:57:51.140Z,478.00
2023-03-29T01:58:05.123Z,479.00
2023-03-29T01:58:19.119Z,479.00
2023-03-29T01:58:33.102Z,478.00
2023-03-29T01:59:01.067Z,478.00
2023-03-29T01:59:15.071Z,478.00
2023-03-29T01:59:29.066Z,478.00
2023-03-29T01:59:43.075Z,478.00
2023-03-29T02:00:11.036Z,478.00
2023-03-29T02:00:25.037Z,477.00
2023-03-29T02:00:39.023Z,477.00
2023-03-29T02:00:53.022Z,478.00
2023-03-29T02:01:21.050Z,477.00
2023-03-29T02:01:35.084Z,477.00
2023-03-29T02:01:49.338Z,477.00
2023-03-29T02:02:03.600Z,475.00
2023-03-29T02:02:31.695Z,475.00
2023-03-29T02:02:45.782Z,474.00
2023-03-29T02:02:59.961Z,475.00
2023-03-29T02:03:14.198Z,475.00
2023-03-29T02:03:42.511Z,474.00
2023-03-29T02:03:56.664Z,475.00
2023-03-29T02:04:10.670Z,475.00
2023-03-29T02:04:24.647Z,476.00
2023-03-29T02:04:52.610Z,476.00
2023-03-29T02:05:06.604Z,477.00
2023-03-29T02:05:20.588Z,477.00
2023-03-29T02:05:34.597Z,475.00
2023-03-29T02:06:02.552Z,476.00
2023-03-29T02:06:16.535Z,477.00
2023-03-29T02:06:30.533Z,477.00
2023-03-29T02:06:44.514Z,477.00
2023-03-29T02:07:12.502Z,477.00
2023-03-29T02:07:26.516Z,478.00
2023-03-29T02:07:40.518Z,478.00
2023-03-29T02:07:54.512Z,478.00
2023-03-29T02:08:22.516Z,477.00
2023-03-29T02:08:36.513Z,477.00
2023-03-29T02:08:50.500Z,476.00
2023-03-29T02:09:04.482Z,478.00
2023-03-29T02:09:32.452Z,477.00
2023-03-29T02:09:46.450Z,477.00
2023-03-29T02:10:00.438Z,476.00
2023-03-29T02:10:14.471Z,476.00
2023-03-29T02:10:42.459Z,474.00
2023-03-29T02:10:56.440Z,473.00
2023-03-29T02:11:10.449Z,474.00
2023-03-29T02:11:24.447Z,475.00
2023-03-29T02:11:52.422Z,474.00
2023-03-29T02:12:06.476Z,475.00
2023-03-29T02:12:20.468Z,475.00
2023-03-29T02:12:34.470Z,475.00
2023-03-29T02:13:02.426Z,474.00
2023-03-29T02:13:16.405Z,474.00
2023-03-29T02:13:30.408Z,476.00
2023-03-29T02:13:44.387Z,477.00
2023-03-29T02:14:12.341Z,478.00
2023-03-29T02:14:26.350Z,477.00
2023-03-29T02:14:40.339Z,477.00
2023-03-29T02:14:54.332Z,477.00
2023-03-29T02:15:22.304Z,477.00
2023-03-29T02:15:36.337Z,477.00
2023-03-29T02:15:50.368Z,477.00
2023-03-29T02:16:04.378Z,477.00
2023-03-29T02:16:32.398Z,476.00
2023-03-29T02:16:46.426Z,477.00
2023-03-29T02:17:00.418Z,477.00
2023-03-29T02:17:14.418Z,478.00
2023-03-29T02:17:42.400Z,477.00
2023-03-29T02:17:56.396Z,477.00
2023-03-29T02:18:10.449Z,477.00
2023-03-29T02:18:24.465Z,476.00
2023-03-29T02:18:52.434Z,475.00
2023-03-29T02:19:06.434Z,476.00
2023-03-29T02:19:20.436Z,476.00
2023-03-29T02:19:34.433Z,476.00
2023-03-29T02:20:02.426Z,476.00
2023-03-29T02:20:16.419Z,476.00
2023-03-29T02:20:30.451Z,477.00
2023-03-29T02:20:44.457Z,477.00
2023-03-29T02:21:12.453Z,476.00
2023-03-29T02:21:26.491Z,476.00
2023-03-29T02:21:40.477Z,475.00
2023-03-29T02:21:54.478Z,475.00
2023-03-29T02:22:08.469Z,476.00
2023-03-29T02:22:22.457Z,476.00
2023-03-29T02:22:36.451Z,477.00
2023-03-29T02:22:50.477Z,477.00
2023-03-29T02:23:04.459Z,476.00
2023-03-29T02:23:32.439Z,477.00
2023-03-29T02:23:46.438Z,477.00
2023-03-29T02:24:00.430Z,476.00
2023-03-29T02:24:14.415Z,476.00
2023-03-29T02:24:42.397Z,475.00
2023-03-29T02:24:56.379Z,475.00
2023-03-29T02:25:10.386Z,476.00
2023-03-29T02:25:24.369Z,476.00
2023-03-29T02:25:52.340Z,477.00
2023-03-29T02:26:06.325Z,477.00
2023-03-29T02:26:20.308Z,477.00
2023-03-29T02:26:34.301Z,477.00
2023-03-29T02:27:02.256Z,476.00
2023-03-29T02:27:16.234Z,476.00
2023-03-29T02:27:30.217Z,476.00
2023-03-29T02:27:44.212Z,476.00
2023-03-29T02:28:12.173Z,477.00
2023-03-29T02:28:26.166Z,478.00
2023-03-29T02:28:40.165Z,476.00
2023-03-29T02:28:54.157Z,475.00
2023-03-29T02:29:22.173Z,475.00
2023-03-29T02:29:36.157Z,475.00
2023-03-29T02:29:50.154Z,476.00
2023-03-29T02:30:04.144Z,475.00
2023-03-29T02:30:32.098Z,476.00
2023-03-29T02:30:46.119Z,476.00
2023-03-29T02:31:00.365Z,476.00
2023-03-29T02:31:14.626Z,476.00
2023-03-29T02:31:42.652Z,476.00
2023-03-29T02:31:56.684Z,477.00
2023-03-29T02:32:10.676Z,477.00
2023-03-29T02:32:24.658Z,476.00
2023-03-29T02:32:52.615Z,475.00
2023-03-29T02:33:06.667Z,475.00
2023-03-29T02:33:20.690Z,476.00
2023-03-29T02:33:34.699Z,477.00
2023-03-29T02:34:02.657Z,477.00
2023-03-29T02:34:16.661Z,477.00
2023-03-29T02:34:30.670Z,477.00
2023-03-29T02:34:44.680Z,477.00
2023-03-29T02:35:12.639Z,477.00
2023-03-29T02:35:26.693Z,477.00
2023-03-29T02:35:40.768Z,478.00
2023-03-29T02:35:54.863Z,478.00
2023-03-29T02:36:22.903Z,477.00
2023-03-29T02:36:36.921Z,477.00
2023-03-29T02:36:50.918Z,477.00
2023-03-29T02:37:04.917Z,477.00
2023-03-29T02:37:32.870Z,478.00
2023-03-29T02:37:46.859Z,477.00
2023-03-29T02:38:00.848Z,477.00
2023-03-29T02:38:14.869Z,477.00
2023-03-29T02:38:42.870Z,477.00
2023-03-29T02:38:56.849Z,477.00
2023-03-29T02:39:10.839Z,479.00
2023-03-29T02:39:24.839Z,479.00
2023-03-29T02:39:38.838Z,478.00
2023-03-29T02:39:52.852Z,479.00
2023-03-29T02:40:06.856Z,478.00
2023-03-29T02:40:20.839Z,479.00
2023-03-29T02:40:34.844Z,479.00
2023-03-29T02:41:03.208Z,478.00
2023-03-29T02:41:17.434Z,479.00
2023-03-29T02:41:31.444Z,479.00
2023-03-29T02:41:45.426Z,479.00
2023-03-29T02:42:13.391Z,479.00
2023-03-29T02:42:27.393Z,478.00
2023-03-29T02:42:41.370Z,478.00
2023-03-29T02:42:55.355Z,479.00
2023-03-29T02:43:25.785Z,478.00
2023-03-29T02:43:37.445Z,479.00
2023-03-29T02:43:51.485Z,479.00
2023-03-29T02:44:05.480Z,478.00
2023-03-29T02:44:33.487Z,478.00
2023-03-29T02:44:47.493Z,478.00
2023-03-29T02:45:01.526Z,479.00
2023-03-29T02:45:15.513Z,478.00
2023-03-29T02:45:43.460Z,478.00
2023-03-29T02:45:57.438Z,478.00
2023-03-29T02:46:11.511Z,477.00
2023-03-29T02:46:25.558Z,477.00
2023-03-29T02:46:53.603Z,476.00
2023-03-29T02:47:07.619Z,476.00
2023-03-29T02:47:21.602Z,475.00
2023-03-29T02:47:35.692Z,475.00
2023-03-29T02:48:03.714Z,474.00
2023-03-29T02:48:17.781Z,474.00
2023-03-29T02:48:31.803Z,474.00
2023-03-29T02:48:45.825Z,474.00
2023-03-29T02:49:13.763Z,474.00
2023-03-29T02:49:27.743Z,474.00
2023-03-29T02:49:41.743Z,474.00
2023-03-29T02:49:55.741Z,474.00
2023-03-29T02:50:23.706Z,474.00
2023-03-29T02:50:37.737Z,474.00
2023-03-29T02:50:51.713Z,474.00
2023-03-29T02:51:05.705Z,473.00
2023-03-29T02:51:33.674Z,472.00
2023-03-29T02:51:47.669Z,472.00
2023-03-29T02:52:01.676Z,471.00
2023-03-29T02:52:15.669Z,471.00
2023-03-29T02:52:43.636Z,472.00
2023-03-29T02:52:57.640Z,472.00
2023-03-29T02:53:11.662Z,472.00
2023-03-29T02:53:25.648Z,472.00
2023-03-29T02:53:53.623Z,473.00
2023-03-29T02:54:07.608Z,472.00
2023-03-29T02:54:21.612Z,472.00
2023-03-29T02:54:35.642Z,472.00
2023-03-29T02:55:03.647Z,474.00
2023-03-29T02:55:17.670Z,474.00
2023-03-29T02:55:31.666Z,474.00
2023-03-29T02:55:45.650Z,474.00
2023-03-29T02:56:13.618Z,474.00
2023-03-29T02:56:27.602Z,475.00
2023-03-29T02:56:41.609Z,474.00
2023-03-29T02:56:55.625Z,474.00
2023-03-29T02:57:23.649Z,475.00
2023-03-29T02:57:37.692Z,475.00
2023-03-29T02:57:51.673Z,475.00
2023-03-29T02:58:05.670Z,475.00
2023-03-29T02:58:33.629Z,475.00
2023-03-29T02:58:47.643Z,476.00
2023-03-29T02:59:01.661Z,476.00
2023-03-29T02:59:15.650Z,478.00
2023-03-29T02:59:43.625Z,476.00
2023-03-29T02:59:57.643Z,477.00
2023-03-29T03:00:11.662Z,477.00
2023-03-29T03:00:25.659Z,477.00
2023-03-29T03:00:53.654Z,477.00
2023-03-29T03:01:07.677Z,478.00
2023-03-29T03:01:21.716Z,478.00
2023-03-29T03:01:35.761Z,477.00
2023-03-29T03:02:03.771Z,478.00
2023-03-29T03:02:17.857Z,478.00
2023-03-29T03:02:31.915Z,477.00
2023-03-29T03:02:46.030Z,476.00
2023-03-29T03:03:14.086Z,475.00
2023-03-29T03:03:28.245Z,476.00
2023-03-29T03:03:42.472Z,475.00
2023-03-29T03:03:56.713Z,476.00
2023-03-29T03:04:24.751Z,475.00
2023-03-29T03:04:38.738Z,475.00
2023-03-29T03:04:52.720Z,474.00
2023-03-29T03:05:06.702Z,475.00
2023-03-29T03:05:34.678Z,475.00
2023-03-29T03:05:48.689Z,475.00
2023-03-29T03:06:02.683Z,476.00
2023-03-29T03:06:16.696Z,476.00
2023-03-29T03:06:44.635Z,476.00
2023-03-29T03:06:58.622Z,477.00
2023-03-29T03:07:12.611Z,477.00
2023-03-29T03:07:26.592Z,476.00
2023-03-29T03:07:54.644Z,476.00
2023-03-29T03:08:08.644Z,476.00
2023-03-29T03:08:22.635Z,476.00
2023-03-29T03:08:36.638Z,476.00
2023-03-29T03:09:04.628Z,477.00
2023-03-29T03:09:18.622Z,477.00
2023-03-29T03:09:32.618Z,478.00
2023-03-29T03:09:46.629Z,478.00
2023-03-29T03:10:00.628Z,477.00
2023-03-29T03:10:14.621Z,476.00
2023-03-29T03:10:28.624Z,476.00
2023-03-29T03:10:42.648Z,476.00
2023-03-29T03:10:56.649Z,476.00
2023-03-29T03:11:24.614Z,475.00
2023-03-29T03:11:38.591Z,475.00
2023-03-29T03:11:52.612Z,474.00
2023-03-29T03:12:06.600Z,475.00
2023-03-29T03:12:34.599Z,476.00
2023-03-29T03:12:48.632Z,475.00
2023-03-29T03:13:02.643Z,475.00
2023-03-29T03:13:16.641Z,474.00
2023-03-29T03:13:44.617Z,474.00
2023-03-29T03:13:58.600Z,474.00
2023-03-29T03:14:12.594Z,475.00
2023-03-29T03:14:26.581Z,474.00
2023-03-29T03:14:54.580Z,475.00
2023-03-29T03:15:08.582Z,475.00
2023-03-29T03:15:22.580Z,475.00
2023-03-29T03:15:36.587Z,476.00
2023-03-29T03:16:04.664Z,475.00
2023-03-29T03:16:18.725Z,475.00
2023-03-29T03:16:32.803Z,475.00
2023-03-29T03:16:46.918Z,476.00
2023-03-29T03:17:14.949Z,475.00
2023-03-29T03:17:28.959Z,475.00
2023-03-29T03:17:43.077Z,475.00
2023-03-29T03:17:57.325Z,474.00
2023-03-29T03:18:25.362Z,473.00
2023-03-29T03:18:39.348Z,473.00
2023-03-29T03:18:53.346Z,472.00
2023-03-29T03:19:07.335Z,473.00
2023-03-29T03:19:35.305Z,472.00
2023-03-29T03:19:49.308Z,472.00
2023-03-29T03:20:03.298Z,472.00
2023-03-29T03:20:17.304Z,472.00
2023-03-29T03:20:45.286Z,471.00
2023-03-29T03:20:59.504Z,472.00
2023-03-29T03:21:13.648Z,471.00
2023-03-29T03:21:27.640Z,471.00
2023-03-29T03:21:55.601Z,471.00
2023-03-29T03:22:09.598Z,470.00
2023-03-29T03:22:23.583Z,470.00
2023-03-29T03:22:37.566Z,471.00
2023-03-29T03:22:51.688Z,472.00
2023-03-29T03:23:05.681Z,473.00
2023-03-29T03:23:19.669Z,471.00
2023-03-29T03:23:33.689Z,471.00
2023-03-29T03:23:47.691Z,470.00
2023-03-29T03:24:15.699Z,471.00
2023-03-29T03:24:29.694Z,472.00
2023-03-29T03:24:43.680Z,473.00
2023-03-29T03:24:57.676Z,473.00
2023-03-29T03:25:25.645Z,473.00
2023-03-29T03:25:39.619Z,474.00
2023-03-29T03:25:53.658Z,473.00
2023-03-29T03:26:07.957Z,474.00
2023-03-29T03:26:36.247Z,473.00
2023-03-29T03:26:50.258Z,473.00
2023-03-29T03:27:04.265Z,473.00
2023-03-29T03:27:18.262Z,473.00
2023-03-29T03:27:46.330Z,472.00
2023-03-29T03:28:00.353Z,472.00
2023-03-29T03:28:14.384Z,472.00
2023-03-29T03:28:28.425Z,473.00
2023-03-29T03:28:56.408Z,471.00
2023-03-29T03:29:10.382Z,472.00
2023-03-29T03:29:24.371Z,472.00
2023-03-29T03:29:38.361Z,472.00
2023-03-29T03:30:06.345Z,472.00
2023-03-29T03:30:20.331Z,471.00
2023-03-29T03:30:34.316Z,472.00
2023-03-29T03:30:48.308Z,472.00
2023-03-29T03:31:16.339Z,473.00
2023-03-29T03:31:30.366Z,473.00
2023-03-29T03:31:44.491Z,472.00
2023-03-29T03:31:58.583Z,471.00
2023-03-29T03:32:27.319Z,471.00
2023-03-29T03:32:41.492Z,470.00
2023-03-29T03:32:55.667Z,470.00
2023-03-29T03:33:09.681Z,470.00
2023-03-29T03:33:37.656Z,469.00
2023-03-29T03:33:51.645Z,468.00
2023-03-29T03:34:05.621Z,468.00
2023-03-29T03:34:19.611Z,469.00
2023-03-29T03:34:47.560Z,468.00
2023-03-29T03:35:01.550Z,469.00
2023-03-29T03:35:15.557Z,469.00
2023-03-29T03:35:29.597Z,469.00
2023-03-29T03:35:57.599Z,469.00